Friday, October 19, 2018, 6:51 PM EDT
Back to Local

KIAG, Niagara Falls International Airport

Location: Niagara Falls, NY, United States Lat: 43.117
Local Time: 6:51 PM EDT (22:51 GMT) Lon: -78.933
Time Zone: US/Eastern Elev: 583 ft

Show me the last for .
Show Decoded

2018-10-19 17:53 METAR KIAG 192153Z 23011G18KT 10SM CLR 12/03 A2984 RMK AO2 SLP110 T01170028 =
2018-10-19 16:53 METAR KIAG 192053Z 23020G25KT 10SM CLR 12/03 A2989 RMK AO2 PK WND 22030/2031
                 SLP126 T01220033 58028 =
2018-10-19 15:53 METAR KIAG 191953Z 24019G29KT 10SM CLR 12/04 A2992 RMK AO2 PK WND 23029/1947
                 SLP139 T01220044 =
2018-10-19 14:53 METAR KIAG 191853Z 23019G24KT 10SM CLR 12/04 A2997 RMK AO2 PK WND 23034/1815
                 SLP153 T01170039 =
2018-10-19 13:53 METAR KIAG 191753Z 22019G31KT 10SM CLR 14/06 A2998 RMK AO2 PK WND 23033/1742
                 SLP156 T01390061 10144 20094 58034 =
2018-10-19 12:53 METAR KIAG 191653Z 22021G30KT 10SM CLR 12/06 A3002 RMK AO2 PK WND 22033/1621
                 SLP172 T01220061 =
2018-10-19 11:53 METAR KIAG 191553Z 23021G29KT 10SM CLR 13/07 A3004 RMK AO2 PK WND 23029/1550
                 SLP179 T01330067 =
2018-10-19 10:53 METAR KIAG 191453Z 22020G25KT 10SM CLR 12/07 A3008 RMK AO2 PK WND 23029/1430
                 SLP192 T01220067 58021 =
2018-10-19 09:53 METAR KIAG 191353Z 23021G29KT 10SM CLR 12/07 A3011 RMK AO2 PK WND 23032/1333
                 SLP203 T01170067 =
2018-10-19 08:53 METAR KIAG 191253Z 23018G25KT 10SM CLR 11/06 A3012 RMK AO2 PK WND 22026/1241
                 SLP209 T01060061 =
2018-10-19 07:53 METAR KIAG 191153Z 23017G23KT 10SM CLR 09/06 A3014 RMK AO2 SLP214 T00940061
                 10100 20072 58018 =
2018-10-19 06:53 METAR KIAG 191053Z 22013G20KT 10SM CLR 09/02 A3015 RMK AO2 SLP219 T00940017 =
2018-10-19 05:53 METAR KIAG 190953Z AUTO 24015KT 10SM CLR 10/01 A3018 RMK AO2 SLP227 T01000011 =
2018-10-19 04:53 METAR KIAG 190853Z AUTO 24018G24KT 10SM CLR 09/02 A3019 RMK AO2 SLP232 T00940017
                 58007 =
2018-10-19 03:53 METAR KIAG 190753Z AUTO 24013KT 10SM CLR 09/02 A3020 RMK AO2 SLP235 T00890022 =
2018-10-19 02:53 METAR KIAG 190653Z AUTO 24012KT 10SM CLR 08/03 A3021 RMK AO2 SLP241 T00830033 =
2018-10-19 01:53 METAR KIAG 190553Z AUTO 24010KT 10SM CLR 07/03 A3021 RMK AO2 SLP240 T00720028
                 10072 20044 56017 =
2018-10-19 00:53 METAR KIAG 190453Z AUTO 23011KT 10SM CLR 07/02 A3022 RMK AO2 SLP244 T00670022
                 400781006 =
2018-10-18 23:53 METAR KIAG 190353Z AUTO 23012KT 10SM CLR 06/02 A3024 RMK AO2 SLP250 T00610017 =
2018-10-18 22:53 METAR KIAG 190253Z 24010KT 10SM CLR 04/01 A3026 RMK AO2 SLP259 T00440006 58017 =
2018-10-18 21:53 METAR KIAG 190153Z 25011KT 10SM CLR 04/00 A3028 RMK AO2 SLP266 T00440000 =
2018-10-18 20:53 METAR KIAG 190053Z 26013KT 10SM CLR 04/M01 A3030 RMK AO2 SLP273 T00441011 =
2018-10-18 19:53 METAR KIAG 182353Z 25010KT 10SM CLR 05/M01 A3031 RMK AO2 SLP279 T00501006 10078
                 20050 58014 =
2018-10-18 18:53 METAR KIAG 182253Z 23014KT 10SM CLR 06/M01 A3033 RMK AO2 SLP284 T00561011 =

Support USWX by starting your Amazon purchase here.